Time;durP1;ratioP1;P1;durP2;ratioP2;P2;SDS_P1;SDS_P2;PMS_P1;PMS_P2;Temp;Humidity;BMP_temperature;BMP_pressure;BME280_temperature;BME280_humidity;BME280_pressure;Samples;Min_cycle;Max_cycle;Signal;HPM_P1;HPM_P2
2023/01/29 00:00:31;;;;;;;13.63;9.57;;;;;;;3.51;100.00;100331.31;5010397;28;20030;-69
2023/01/29 00:02:56;;;;;;;11.70;8.70;;;;;;;3.35;100.00;100316.97;5010730;28;20041;-69
2023/01/29 00:05:22;;;;;;;11.68;8.68;;;;;;;3.46;100.00;100312.88;5009434;28;20038;-69
2023/01/29 00:07:47;;;;;;;15.15;10.40;;;;;;;3.52;100.00;100358.13;5009664;28;20584;-69
2023/01/29 00:10:12;;;;;;;14.50;10.65;;;;;;;3.76;100.00;100349.91;5010180;28;20515;-69
2023/01/29 00:12:38;;;;;;;16.83;11.60;;;;;;;3.37;100.00;100286.00;5010128;28;20030;-69
2023/01/29 00:15:04;;;;;;;16.92;12.10;;;;;;;3.46;100.00;100363.13;5010556;28;20172;-68
2023/01/29 00:17:30;;;;;;;18.02;12.68;;;;;;;3.64;100.00;100349.81;5009709;28;20438;-68
2023/01/29 00:19:55;;;;;;;20.23;13.30;;;;;;;2.84;100.00;100254.69;5010107;28;20030;-69
2023/01/29 00:22:21;;;;;;;19.60;13.40;;;;;;;3.12;100.00;100281.69;5009893;28;20054;-68
2023/01/29 00:24:46;;;;;;;20.88;14.00;;;;;;;3.66;100.00;100375.81;5009020;28;20041;-68
2023/01/29 00:27:11;;;;;;;21.30;13.93;;;;;;;3.73;100.00;100364.94;5009976;28;20026;-69
2023/01/29 00:29:37;;;;;;;20.42;14.63;;;;;;;3.50;100.00;100335.53;5009880;28;20040;-69
2023/01/29 00:32:02;;;;;;;19.15;14.27;;;;;;;2.86;100.00;100284.81;5010074;28;20029;-68
2023/01/29 00:34:28;;;;;;;22.73;14.45;;;;;;;3.56;100.00;100361.50;5041611;28;20412;-68
2023/01/29 00:37:05;;;;;;;20.20;15.15;;;;;;;3.25;100.00;100318.59;5008447;28;20037;-68
2023/01/29 00:39:37;;;;;;;23.38;16.30;;;;;;;3.73;100.00;100359.91;5010102;28;20026;-69
2023/01/29 00:44:56;;;;;;;29.08;18.27;;;;;;;3.55;100.00;100368.19;5009979;28;20148;-68
2023/01/29 00:47:34;;;;;;;30.20;17.23;;;;;;;3.07;100.00;100270.75;5010103;28;20041;-68
2023/01/29 00:50:06;;;;;;;30.50;18.17;;;;;;;2.89;100.00;100299.91;5009986;28;20109;-69
2023/01/29 00:52:31;;;;;;;;;;;;;;;3.25;100.00;100381.38;5010602;28;20148;-68
2023/01/29 00:54:58;;;;;;;15.90;10.80;;;;;;;3.30;100.00;100368.88;5010276;28;20396;-68
2023/01/29 00:57:26;;;;;;;15.23;10.50;;;;;;;2.81;100.00;100281.44;5041372;28;20411;-68
2023/01/29 00:59:52;;;;;;;12.90;9.60;;;;;;;3.45;100.00;100362.28;5009720;28;20029;-70
2023/01/29 01:05:06;;;;;;;13.32;8.95;;;;;;;3.21;100.00;100311.84;5009995;28;20045;-69
2023/01/29 01:07:32;;;;;;;14.15;9.90;;;;;;;3.24;100.00;100321.09;5008701;28;20058;-68
2023/01/29 01:12:42;;;;;;;13.93;9.13;;;;;;;3.02;100.00;100304.19;5012459;28;20041;-69
2023/01/29 01:15:09;;;;;;;12.52;9.15;;;;;;;3.57;100.00;100398.34;5013129;28;20030;-68
2023/01/29 01:17:35;;;;;;;12.13;9.18;;;;;;;2.97;100.00;100293.28;5012871;28;20025;-68
2023/01/29 01:20:00;;;;;;;14.50;8.80;;;;;;;3.36;100.00;100406.59;5011722;28;20038;-68
2023/01/29 01:22:26;;;;;;;12.55;8.57;;;;;;;3.43;100.00;100405.78;5011263;28;20459;-68
2023/01/29 01:24:52;;;;;;;12.75;8.35;;;;;;;2.50;100.00;100227.63;5011777;28;20069;-69
2023/01/29 01:27:18;;;;;;;11.52;8.20;;;;;;;2.99;100.00;100315.03;5013140;28;20466;-68
2023/01/29 01:29:46;;;;;;;11.70;8.25;;;;;;;2.87;100.00;100317.47;5011636;28;20518;-69
2023/01/29 01:32:12;;;;;;;11.70;8.52;;;;;;;3.25;100.00;100362.94;5011693;28;20060;-69
2023/01/29 01:34:37;;;;;;;11.98;8.25;;;;;;;3.30;100.00;100394.84;5013035;28;20034;-69
2023/01/29 01:37:03;;;;;;;11.20;8.75;;;;;;;3.49;100.00;100398.31;5012260;28;20472;-69
2023/01/29 01:39:29;;;;;;;14.20;8.73;;;;;;;3.30;100.00;100399.00;5012633;28;20412;-69
2023/01/29 01:41:54;;;;;;;12.35;8.65;;;;;;;2.78;100.00;100316.53;5012217;28;20042;-69
2023/01/29 01:44:54;;;;;;;12.10;8.93;;;;;;;3.28;100.00;100396.50;5011325;28;20125;-68
2023/01/29 01:47:47;;;;;;;11.50;8.38;;;;;;;3.24;100.00;100399.81;5012811;28;20076;-69
2023/01/29 01:50:25;;;;;;;13.20;9.32;;;;;;;3.40;100.00;100396.59;5010859;28;20136;-69
2023/01/29 01:52:58;;;;;;;13.10;9.30;;;;;;;3.25;100.00;100395.59;5010838;28;20042;-71
2023/01/29 01:55:26;;;;;;;15.10;9.25;;;;;;;2.87;100.00;100320.00;5011390;28;20123;-69
2023/01/29 01:57:59;;;;;;;13.45;9.70;;;;;;;3.29;100.00;100397.31;5011145;28;20030;-69
2023/01/29 02:00:25;;;;;;;13.50;8.80;;;;;;;2.91;100.00;100325.88;5012015;28;20038;-68
2023/01/29 02:11:33;;;;;;;14.02;8.55;;;;;;;3.20;100.00;100397.25;5011881;28;20061;-68
2023/01/29 02:13:58;;;;;;;11.50;8.35;;;;;;;2.87;100.00;100314.97;5012175;28;20477;-68
2023/01/29 02:16:24;;;;;;;12.60;8.35;;;;;;;2.90;100.00;100311.63;5012168;28;20051;-69
2023/01/29 02:18:50;;;;;;;14.10;8.63;;;;;;;3.22;100.00;100373.00;5011825;28;20490;-69
2023/01/29 02:21:43;;;;;;;13.45;8.20;;;;;;;3.41;100.00;100408.31;5010286;28;20507;-69
2023/01/29 02:24:50;;;;;;;12.77;8.43;;;;;;;3.44;100.00;100390.75;5009219;28;20172;-68
2023/01/29 02:27:31;;;;;;;12.68;8.82;;;;;;;3.50;100.00;100417.59;5011830;28;20030;-68
2023/01/29 02:30:29;;;;;;;14.07;8.60;;;;;;;3.39;100.00;100409.97;5011710;28;20048;-68
2023/01/29 02:33:10;;;;;;;11.73;8.15;;;;;;;3.38;100.00;100413.31;4987912;28;20053;-68
2023/01/29 02:35:49;;;;;;;15.25;10.75;;;;;;;3.32;100.00;100427.50;5011940;28;20120;-68
2023/01/29 02:38:36;;;;;;;13.98;9.52;;;;;;;3.41;100.00;100408.31;5011216;28;20033;-68
2023/01/29 02:41:12;;;;;;;15.15;10.15;;;;;;;2.74;100.00;100310.66;5010167;28;20085;-69
2023/01/29 02:43:47;;;;;;;16.17;10.00;;;;;;;2.98;100.00;100328.44;5010005;28;20041;-69
2023/01/29 02:46:34;;;;;;;16.77;10.25;;;;;;;3.11;100.00;100419.78;5011380;28;20026;-69
2023/01/29 02:49:30;;;;;;;11.18;8.88;;;;;;;2.89;100.00;100391.13;5009865;28;20089;-70
2023/01/29 02:52:08;;;;;;;13.68;10.30;;;;;;;2.48;100.00;100329.63;5012374;28;20030;-69
2023/01/29 02:54:56;;;;;;;11.63;8.77;;;;;;;3.02;100.00;100425.56;5011623;28;20476;-69
2023/01/29 02:57:29;;;;;;;12.07;9.00;;;;;;;2.93;100.00;100420.44;5011203;28;20113;-69
2023/01/29 02:59:57;;;;;;;13.77;9.48;;;;;;;2.97;100.00;100443.91;5011360;28;20032;-68
2023/01/29 03:02:55;;;;;;;14.23;9.23;;;;;;;3.27;100.00;100429.97;4999949;28;20026;-68
2023/01/29 03:05:30;;;;;;;12.30;9.48;;;;;;;3.14;100.00;100432.34;4991414;28;20504;-69
2023/01/29 03:08:01;;;;;;;12.88;9.23;;;;;;;2.98;100.00;100416.31;4989056;28;20040;-69
2023/01/29 03:10:26;;;;;;;14.32;10.40;;;;;;;2.82;100.00;100444.59;4991875;28;20048;-69
2023/01/29 03:13:07;;;;;;;13.18;9.60;;;;;;;2.92;100.00;100438.00;5006490;28;20412;-69
2023/01/29 03:15:41;;;;;;;11.32;8.52;;;;;;;2.77;100.00;100452.91;4991530;28;20034;-69
2023/01/29 03:18:14;;;;;;;12.77;9.05;;;;;;;2.79;100.00;100469.66;5006322;28;20077;-68
2023/01/29 03:20:47;;;;;;;14.40;9.30;;;;;;;2.87;100.00;100480.63;5006158;28;20152;-69
2023/01/29 03:23:25;;;;;;;12.70;8.63;;;;;;;2.37;100.00;100406.44;4991054;28;20034;-69
2023/01/29 03:34:22;;;;;;;12.10;8.57;;;;;;;1.97;100.00;100447.72;4991299;28;20053;-69
2023/01/29 03:36:48;;;;;;;13.00;9.85;;;;;;;2.96;100.00;100580.31;4993484;28;20040;-70
2023/01/29 03:39:15;;;;;;;11.35;8.70;;;;;;;2.67;100.00;100574.94;5025593;28;20416;-71
2023/01/29 03:42:11;;;;;;;12.27;8.80;;;;;;;2.06;100.00;100517.22;5010212;28;20095;-71
2023/01/29 03:44:40;;;;;;;12.68;9.07;;;;;;;2.51;100.00;100580.56;5002241;28;20038;-71
2023/01/29 03:47:18;;;;;;;11.65;9.27;;;;;;;2.40;100.00;100609.66;5010694;28;20468;-71
2023/01/29 03:49:51;;;;;;;15.45;11.00;;;;;;;2.46;100.00;100619.78;5008531;28;20484;-70
2023/01/29 03:52:47;;;;;;;12.63;9.48;;;;;;;2.66;100.00;100613.38;5010455;28;20036;-70
2023/01/29 03:55:29;;;;;;;12.88;9.20;;;;;;;1.99;100.00;100541.34;5010384;28;20101;-70
2023/01/29 03:58:03;;;;;;;12.30;8.88;;;;;;;2.27;100.00;100607.78;5009711;28;20040;-70
2023/01/29 04:00:38;;;;;;;14.00;9.77;;;;;;;2.41;100.00;100629.75;5008843;28;20516;-70
2023/01/29 04:03:18;;;;;;;12.50;9.27;;;;;;;2.58;100.00;100655.09;5010264;28;20030;-70
2023/01/29 04:05:51;;;;;;;11.82;8.75;;;;;;;2.13;100.00;100581.66;5010111;28;20021;-69
2023/01/29 04:08:26;;;;;;;12.40;9.43;;;;;;;2.35;100.00;100646.38;5009965;28;20485;-70
2023/01/29 04:10:56;;;;;;;15.15;9.85;;;;;;;2.33;100.00;100645.50;5008792;28;20065;-70
2023/01/29 04:13:23;;;;;;;16.05;10.38;;;;;;;2.39;100.00;100683.22;5010140;28;20030;-71
2023/01/29 04:15:56;;;;;;;12.95;9.25;;;;;;;2.14;100.00;100668.59;5008244;28;20083;-69
2023/01/29 04:18:21;;;;;;;14.52;9.85;;;;;;;2.07;100.00;100680.19;5010144;28;20041;-68
2023/01/29 04:20:47;;;;;;;14.93;10.40;;;;;;;1.60;100.00;100639.25;5008054;28;20435;-68
2023/01/29 04:23:24;;;;;;;17.67;11.20;;;;;;;1.69;100.00;100674.47;5010099;28;20112;-69
2023/01/29 04:26:15;;;;;;;17.10;11.45;;;;;;;1.88;100.00;100699.88;5010052;28;20084;-71
2023/01/29 04:29:08;;;;;;;16.85;10.63;;;;;;;1.23;100.00;100609.28;5001166;28;20358;-68
2023/01/29 04:31:48;;;;;;;16.63;11.63;;;;;;;1.92;100.00;100705.00;5009345;28;20054;-71
2023/01/29 04:34:45;;;;;;;17.08;11.50;;;;;;;1.64;100.00;100695.25;5009917;28;20092;-71
2023/01/29 04:37:20;;;;;;;17.60;11.63;;;;;;;1.78;100.00;100728.94;5005280;28;20049;-68
2023/01/29 04:39:53;;;;;;;17.33;11.68;;;;;;;1.71;100.00;100707.06;5009599;28;20038;-69
2023/01/29 04:42:34;;;;;;;16.15;10.90;;;;;;;1.41;100.00;100662.22;5009066;28;20125;-69
2023/01/29 04:45:08;;;;;;;18.15;11.70;;;;;;;1.77;100.00;100748.13;5004778;28;20038;-69
2023/01/29 04:48:03;;;;;;;17.90;11.23;;;;;;;1.82;100.00;100737.34;4992219;28;20031;-71
2023/01/29 04:50:53;;;;;;;22.83;14.43;;;;;;;1.89;100.00;100734.13;4993406;28;20557;-71
2023/01/29 04:53:57;;;;;;;23.23;13.98;;;;;;;1.96;100.00;100746.00;4994198;28;20030;-71
2023/01/29 04:56:35;;;;;;;27.05;12.45;;;;;;;2.94;100.00;100762.72;4987347;28;20133;-72
2023/01/29 04:59:06;;;;;;;23.20;14.18;;;;;;;1.94;100.00;100733.41;5015171;28;20061;-71
2023/01/29 05:01:34;;;;;;;21.08;13.70;;;;;;;1.80;100.00;100764.06;4992826;28;20059;-71
2023/01/29 05:04:05;;;;;;;19.45;12.48;;;;;;;1.17;100.00;100679.25;4993495;28;20504;-70
2023/01/29 05:06:31;;;;;;;20.20;12.70;;;;;;;1.34;100.00;100732.19;4992873;28;20043;-72
2023/01/29 05:08:59;;;;;;;19.38;11.80;;;;;;;1.10;100.00;100651.56;4992722;28;20034;-71
2023/01/29 05:11:25;;;;;;;19.65;11.85;;;;;;;1.50;100.00;100772.66;4991439;28;20088;-68
2023/01/29 05:13:51;;;;;;;20.38;12.60;;;;;;;1.43;100.00;100760.78;4992288;28;20382;-71
2023/01/29 05:16:24;;;;;;;19.35;12.35;;;;;;;1.38;100.00;100774.03;4993528;28;20038;-70
2023/01/29 05:18:50;;;;;;;20.50;12.13;;;;;;;1.31;100.00;100775.53;4992077;28;20031;-69
2023/01/29 05:21:15;;;;;;;18.35;11.85;;;;;;;1.02;100.00;100708.13;4993345;28;20487;-69
2023/01/29 05:23:51;;;;;;;18.73;12.07;;;;;;;1.54;100.00;100784.41;4993257;28;20038;-70
2023/01/29 05:29:04;;;;;;;19.45;12.02;;;;;;;0.89;100.00;100702.03;4993688;28;20117;-70
2023/01/29 05:31:29;;;;;;;19.73;12.60;;;;;;;1.34;100.00;100792.31;4992147;28;20125;-70
2023/01/29 05:33:54;;;;;;;21.23;11.68;;;;;;;0.80;100.00;100711.81;4993256;28;20030;-70
2023/01/29 05:36:20;;;;;;;18.58;12.13;;;;;;;1.19;100.00;100787.78;4993821;28;20030;-69
2023/01/29 05:38:45;;;;;;;25.48;14.55;;;;;;;0.76;100.00;100700.91;4992426;28;20034;-70
2023/01/29 05:41:11;;;;;;;25.05;14.32;;;;;;;1.13;100.00;100752.59;4993010;28;20045;-69
2023/01/29 05:43:36;;;;;;;20.83;12.52;;;;;;;1.23;100.00;100802.06;4993454;28;20480;-70
2023/01/29 05:46:01;;;;;;;21.13;13.10;;;;;;;0.78;100.00;100721.78;4993083;28;20057;-70
2023/01/29 05:48:28;;;;;;;20.73;12.52;;;;;;;1.01;100.00;100749.00;4991705;28;20153;-69
2023/01/29 05:50:53;;;;;;;26.92;16.73;;;;;;;1.25;100.00;100799.63;4991651;28;20037;-69
2023/01/29 05:53:19;;;;;;;23.98;14.93;;;;;;;0.97;100.00;100755.56;4993310;28;20034;-70
2023/01/29 05:55:46;;;;;;;23.75;15.18;;;;;;;1.00;100.00;100755.66;4993289;28;20503;-70
2023/01/29 05:58:11;;;;;;;20.05;13.13;;;;;;;1.16;100.00;100796.91;4992912;28;20031;-69
2023/01/29 06:00:37;;;;;;;19.48;12.20;;;;;;;1.28;100.00;100830.56;4992751;28;20303;-70
2023/01/29 06:03:03;;;;;;;19.40;12.32;;;;;;;0.84;100.00;100746.94;4993167;28;20038;-69
2023/01/29 06:05:28;;;;;;;21.60;13.57;;;;;;;1.40;100.00;100828.34;4993135;28;20527;-69
2023/01/29 06:07:54;;;;;;;20.30;12.73;;;;;;;1.24;100.00;100823.81;4991934;28;20117;-69
2023/01/29 06:10:19;;;;;;;23.00;13.70;;;;;;;0.87;100.00;100757.00;4991633;28;20026;-69
2023/01/29 06:12:44;;;;;;;25.58;14.15;;;;;;;1.07;100.00;100777.50;4992777;28;20025;-69
2023/01/29 06:15:11;;;;;;;26.60;15.38;;;;;;;0.94;100.00;100768.03;4991769;28;20030;-69
2023/01/29 06:17:37;;;;;;;23.88;14.65;;;;;;;1.11;100.00;100811.81;4992501;28;20117;-70
2023/01/29 06:20:04;;;;;;;21.52;13.27;;;;;;;0.96;100.00;100763.03;4991102;28;20034;-69
2023/01/29 06:22:29;;;;;;;20.98;13.52;;;;;;;1.51;100.00;100862.00;4991027;28;20078;-72
2023/01/29 06:24:55;;;;;;;21.67;13.50;;;;;;;1.54;100.00;100811.13;4992329;28;20074;-69
2023/01/29 06:27:20;;;;;;;25.60;16.60;;;;;;;1.84;100.00;100876.06;4992339;28;20812;-70
2023/01/29 06:29:45;;;;;;;20.63;14.27;;;;;;;0.70;100.00;100720.75;4992254;28;20031;-70
2023/01/29 06:32:11;;;;;;;23.50;13.40;;;;;;;1.63;100.00;100862.25;4991225;28;20428;-69
2023/01/29 06:34:36;;;;;;;23.35;14.48;;;;;;;1.88;100.00;100876.19;4991347;28;20022;-70
2023/01/29 06:37:02;;;;;;;23.17;15.10;;;;;;;1.23;100.00;100801.25;4992595;28;20034;-70
2023/01/29 06:39:27;;;;;;;22.10;14.23;;;;;;;1.18;100.00;100790.25;4991917;28;20121;-72
2023/01/29 06:41:53;;;;;;;27.65;17.80;;;;;;;1.35;100.00;100797.34;4992159;28;20420;-70
2023/01/29 06:44:18;;;;;;;38.13;25.52;;;;;;;1.66;100.00;100879.84;4992173;28;20022;-70
2023/01/29 06:46:43;;;;;;;26.40;16.63;;;;;;;1.72;100.00;100892.53;4992018;28;20081;-69
2023/01/29 06:49:09;;;;;;;33.03;21.88;;;;;;;1.58;100.00;100827.91;4991060;28;20030;-70
2023/01/29 06:51:34;;;;;;;16.55;10.65;;;;;;;1.50;100.00;100874.50;4992181;28;20121;-70
2023/01/29 06:54:00;;;;;;;17.33;10.50;;;;;;;1.69;100.00;100879.94;4990830;28;20120;-70
2023/01/29 06:56:25;;;;;;;18.40;10.90;;;;;;;1.28;100.00;100818.06;4991802;28;20111;-70
2023/01/29 06:58:51;;;;;;;18.83;12.88;;;;;;;1.26;100.00;100818.81;4990807;28;20040;-70
2023/01/29 07:01:16;;;;;;;25.25;17.13;;;;;;;1.57;100.00;100829.56;4990508;28;20491;-70
2023/01/29 07:03:42;;;;;;;28.30;18.85;;;;;;;1.19;100.00;100756.94;4990462;28;20681;-70
2023/01/29 07:06:08;;;;;;;16.55;11.93;;;;;;;1.72;100.00;100889.19;4990476;28;20125;-70
2023/01/29 07:08:38;;;;;;;17.92;11.95;;;;;;;1.75;100.00;100897.63;4990537;28;20030;-70
2023/01/29 07:11:04;;;;;;;20.55;13.95;;;;;;;2.07;100.00;100904.97;4991559;28;20058;-70
2023/01/29 07:13:29;;;;;;;20.33;14.15;;;;;;;1.89;100.00;100827.72;4990587;28;20042;-71
2023/01/29 07:16:02;;;;;;;17.45;11.98;;;;;;;1.48;100.00;100818.50;4989928;28;20394;-71
2023/01/29 07:18:28;;;;;;;16.45;11.18;;;;;;;1.64;100.00;100833.06;4990148;28;20038;-71
2023/01/29 07:20:54;;;;;;;23.08;13.57;;;;;;;2.08;100.00;100914.22;4990104;28;20034;-71
2023/01/29 07:23:20;;;;;;;17.02;11.23;;;;;;;1.94;100.00;100895.50;4991742;28;20038;-71
2023/01/29 07:25:45;;;;;;;12.50;8.80;;;;;;;1.77;100.00;100898.50;4991592;28;20027;-71
2023/01/29 07:28:11;;;;;;;13.27;8.95;;;;;;;1.87;100.00;100916.22;4990546;28;20473;-71
2023/01/29 07:30:36;;;;;;;13.57;8.75;;;;;;;1.89;100.00;100905.44;4990928;28;20038;-71
2023/01/29 07:33:04;;;;;;;14.65;9.75;;;;;;;2.00;100.00;100933.25;4991638;28;20097;-71
2023/01/29 07:35:30;;;;;;;14.25;9.68;;;;;;;1.69;100.00;100925.03;4991406;28;20507;-71
2023/01/29 07:37:55;;;;;;;16.60;10.50;;;;;;;1.88;100.00;100902.91;4991587;28;20023;-70
2023/01/29 07:40:20;;;;;;;17.90;11.57;;;;;;;1.02;100.00;100770.69;4990787;28;20046;-69
2023/01/29 07:42:46;;;;;;;16.05;10.60;;;;;;;1.70;100.00;100873.28;4991320;28;20401;-69
2023/01/29 07:45:11;;;;;;;15.90;10.20;;;;;;;1.29;100.00;100778.84;5000526;28;20030;-71
2023/01/29 07:47:37;;;;;;;14.13;9.57;;;;;;;1.86;100.00;100922.06;5010713;28;20562;-72
2023/01/29 07:50:04;;;;;;;16.73;10.85;;;;;;;1.93;100.00;100841.16;5010776;28;20482;-69
2023/01/29 07:52:30;;;;;;;19.05;11.85;;;;;;;2.02;100.00;100904.88;5010554;28;20026;-69
2023/01/29 07:54:56;;;;;;;20.05;12.23;;;;;;;2.04;100.00;100913.28;5042579;28;20500;-71
2023/01/29 07:57:21;;;;;;;14.60;9.90;;;;;;;1.71;100.00;100930.94;5008964;28;20145;-69
2023/01/29 07:59:47;;;;;;;15.27;9.82;;;;;;;1.76;100.00;100914.34;5010049;28;20120;-71
2023/01/29 08:02:13;;;;;;;17.95;11.48;;;;;;;1.56;100.00;100852.09;5010539;28;20038;-72
2023/01/29 08:04:38;;;;;;;16.63;11.75;;;;;;;1.85;100.00;100923.72;5042009;28;20034;-69
2023/01/29 08:07:04;;;;;;;30.17;19.08;;;;;;;1.55;100.00;100848.72;5010805;28;20036;-71
2023/01/29 08:09:30;;;;;;;35.95;23.75;;;;;;;2.25;100.00;100930.44;5010531;28;20110;-69
2023/01/29 08:11:55;;;;;;;67.35;42.83;;;;;;;1.56;100.00;100867.09;5010156;28;20076;-69
2023/01/29 08:14:22;;;;;;;20.90;14.93;;;;;;;1.81;100.00;100888.53;5008738;28;20398;-72
2023/01/29 08:16:47;;;;;;;22.38;15.38;;;;;;;2.10;100.00;100930.13;5010837;28;20558;-69
2023/01/29 08:19:12;;;;;;;27.98;19.48;;;;;;;2.19;100.00;100948.72;5010340;28;20053;-69
2023/01/29 08:21:38;;;;;;;16.83;11.52;;;;;;;1.88;100.00;100931.31;5012846;28;20137;-69
2023/01/29 08:24:04;;;;;;;16.52;10.13;;;;;;;2.02;100.00;100950.00;5014576;28;20124;-68
2023/01/29 08:26:29;;;;;;;21.98;15.30;;;;;;;2.03;100.00;100943.34;5014349;28;20057;-70
2023/01/29 08:28:54;;;;;;;15.77;11.32;;;;;;;1.51;100.00;100851.97;5013892;28;20088;-69
2023/01/29 08:31:20;;;;;;;18.27;11.55;;;;;;;1.60;100.00;100842.16;5045523;28;20404;-69
2023/01/29 08:33:45;;;;;;;18.63;13.18;;;;;;;2.19;100.00;100923.66;5014192;28;20034;-70
2023/01/29 08:36:11;;;;;;;14.07;9.25;;;;;;;2.26;100.00;100962.22;5014119;28;20034;-70
2023/01/29 08:38:37;;;;;;;19.25;12.57;;;;;;;1.77;100.00;100892.63;5012837;28;20521;-70
2023/01/29 08:41:02;;;;;;;23.38;15.55;;;;;;;2.29;100.00;100954.78;5013790;28;20026;-70
2023/01/29 08:43:28;;;;;;;24.40;16.35;;;;;;;1.72;100.00;100809.00;5012248;28;20041;-71
2023/01/29 08:45:53;;;;;;;31.52;19.73;;;;;;;1.97;100.00;100935.66;5013601;28;20025;-69
2023/01/29 08:48:19;;;;;;;35.80;21.30;;;;;;;1.48;100.00;100826.88;5013876;28;20030;-70
2023/01/29 08:50:44;;;;;;;24.15;16.40;;;;;;;1.53;100.00;100882.91;5013487;28;20030;-69
2023/01/29 08:53:10;;;;;;;21.55;13.60;;;;;;;1.60;100.00;100867.22;5013720;28;20030;-70
2023/01/29 08:55:37;;;;;;;20.48;14.45;;;;;;;2.02;100.00;100937.47;5013644;28;20100;-70
2023/01/29 08:58:07;;;;;;;23.92;15.63;;;;;;;1.99;100.00;100876.38;5013925;28;20037;-70
2023/01/29 09:00:34;;;;;;;19.13;12.65;;;;;;;2.11;100.00;100891.69;5014047;28;20033;-70
2023/01/29 09:02:59;;;;;;;24.80;17.48;;;;;;;2.18;100.00;100931.13;5045116;28;20029;-69
2023/01/29 09:05:28;;;;;;;27.45;18.35;;;;;;;1.90;100.00;100954.78;5013602;28;20488;-70
2023/01/29 09:07:57;;;;;;;29.45;23.73;;;;;;;1.93;100.00;100871.25;5012222;28;20546;-70
2023/01/29 09:10:22;;;;;;;22.48;15.23;;;;;;;2.36;100.00;100934.00;5013561;28;20033;-72
2023/01/29 09:12:48;;;;;;;24.10;17.25;;;;;;;2.40;100.00;100961.69;5012532;28;20416;-69
2023/01/29 09:15:13;;;;;;;23.55;15.75;;;;;;;2.50;100.00;100978.63;5013506;28;20109;-69
2023/01/29 09:17:39;;;;;;;21.08;12.85;;;;;;;2.41;100.00;100965.91;5012297;28;20040;-70
2023/01/29 09:20:06;;;;;;;24.13;15.35;;;;;;;2.43;100.00;100943.38;5011714;28;20487;-70
2023/01/29 09:22:32;;;;;;;38.42;27.00;;;;;;;2.51;100.00;100926.81;5011906;28;20069;-70
2023/01/29 09:24:58;;;;;;;29.50;19.50;;;;;;;2.29;100.00;100967.31;5013161;28;20538;-69
2023/01/29 09:27:23;;;;;;;24.10;17.67;;;;;;;2.24;100.00;100949.66;5012970;28;20053;-71
2023/01/29 09:29:49;;;;;;;23.50;16.85;;;;;;;2.19;100.00;100927.81;5012993;28;20076;-69
2023/01/29 09:32:14;;;;;;;26.33;18.02;;;;;;;2.14;100.00;100942.75;5012408;28;20032;-71
2023/01/29 09:34:40;;;;;;;23.13;15.90;;;;;;;1.80;100.00;100864.28;5013184;28;20034;-71
2023/01/29 09:37:05;;;;;;;52.72;31.10;;;;;;;2.59;100.00;100933.63;5012462;28;20409;-71
2023/01/29 09:39:31;;;;;;;26.52;17.50;;;;;;;2.05;100.00;100925.00;5012640;28;20030;-71
2023/01/29 09:42:23;;;;;;;27.63;18.45;;;;;;;2.36;100.00;100942.38;5012609;28;20034;-71
2023/01/29 09:44:56;;;;;;;21.27;13.65;;;;;;;2.04;100.00;100830.53;5012850;28;20101;-71
2023/01/29 09:47:25;;;;;;;22.27;14.63;;;;;;;2.30;100.00;100851.97;5012852;28;20060;-71
2023/01/29 09:50:01;;;;;;;23.77;15.75;;;;;;;2.78;100.00;100928.97;5011336;28;20041;-71
2023/01/29 09:52:37;;;;;;;26.63;17.25;;;;;;;2.28;100.00;100880.31;5044486;28;20040;-71
2023/01/29 09:55:09;;;;;;;55.38;31.55;;;;;;;2.86;100.00;100914.91;5044447;28;20088;-70
2023/01/29 09:58:10;;;;;;;25.23;17.58;;;;;;;2.78;100.00;100923.94;5011358;28;20092;-71
2023/01/29 10:00:45;;;;;;;27.17;18.33;;;;;;;2.29;100.00;100907.13;5005584;28;20053;-71
2023/01/29 10:03:27;;;;;;;54.25;39.38;;;;;;;2.81;100.00;100921.50;5012478;28;20030;-71
2023/01/29 10:05:59;;;;;;;45.83;32.20;;;;;;;2.92;100.00;100922.53;5012184;28;20033;-71
2023/01/29 10:08:43;;;;;;;29.85;21.58;;;;;;;2.41;100.00;100917.41;5012673;28;20041;-71
2023/01/29 10:11:37;;;;;;;36.28;24.15;;;;;;;2.72;100.00;100848.53;5012112;28;20044;-71
2023/01/29 10:14:38;;;;;;;43.97;29.65;;;;;;;2.87;100.00;100909.94;5007888;28;20030;-71
2023/01/29 10:17:24;;;;;;;51.95;32.55;;;;;;;3.01;100.00;100912.69;4992757;28;20034;-71
2023/01/29 10:20:14;;;;;;;33.28;22.85;;;;;;;2.83;100.00;100908.19;4991888;28;20030;-71
2023/01/29 10:23:04;;;;;;;21.30;14.38;;;;;;;2.75;100.00;100902.19;4992218;28;20062;-71
2023/01/29 10:25:35;;;;;;;19.27;12.60;;;;;;;2.07;100.00;100742.00;5007354;28;20093;-70
2023/01/29 10:28:01;;;;;;;17.52;11.63;;;;;;;2.50;100.00;100812.19;5007285;28;20034;-69
2023/01/29 10:30:34;;;;;;;16.05;11.38;;;;;;;2.63;100.00;100899.44;4991970;28;20565;-70
2023/01/29 10:33:04;;;;;;;20.00;13.02;;;;;;;2.28;100.00;100812.59;4992115;28;20548;-71
2023/01/29 10:35:34;;;;;;;19.33;12.63;;;;;;;2.28;100.00;100818.47;4992588;28;20026;-71
2023/01/29 10:38:17;;;;;;;24.75;19.20;;;;;;;2.30;100.00;100804.31;4991048;28;20126;-71
2023/01/29 10:40:59;;;;;;;21.08;16.65;;;;;;;2.56;100.00;100813.16;4992534;28;20037;-71
2023/01/29 10:43:47;;;;;;;20.65;14.32;;;;;;;3.02;100.00;100882.56;4992285;28;20033;-71
2023/01/29 10:46:18;;;;;;;19.23;12.40;;;;;;;2.86;100.00;100879.75;4992061;28;20042;-71
2023/01/29 10:49:09;;;;;;;16.65;10.60;;;;;;;2.92;100.00;100872.31;4991889;28;20520;-71
2023/01/29 10:51:56;;;;;;;17.25;11.60;;;;;;;2.89;100.00;100865.63;4991766;28;20038;-71
2023/01/29 10:54:43;;;;;;;16.48;10.43;;;;;;;2.96;100.00;100856.50;4992025;28;20113;-71
2023/01/29 10:57:49;;;;;;;18.88;12.68;;;;;;;3.14;100.00;100855.13;4991562;28;20070;-72
2023/01/29 11:00:24;;;;;;;15.95;11.00;;;;;;;2.63;100.00;100768.94;4977800;28;20104;-71
2023/01/29 11:02:51;;;;;;;17.80;10.93;;;;;;;3.04;100.00;100842.41;4991978;28;20046;-72
2023/01/29 11:05:33;;;;;;;15.43;10.48;;;;;;;2.88;100.00;100845.47;5149269;27;20388;-70
2023/01/29 11:08:07;;;;;;;15.80;10.02;;;;;;;2.94;100.00;100850.59;5149693;27;20071;-71
2023/01/29 11:10:53;;;;;;;14.63;9.55;;;;;;;2.84;100.00;100821.13;5149659;27;20022;-69
2023/01/29 11:13:18;;;;;;;19.13;12.18;;;;;;;3.05;100.00;100761.25;5149219;27;20033;-69
2023/01/29 11:15:43;;;;;;;21.20;13.00;;;;;;;3.31;100.00;100823.56;5148871;27;20412;-69
2023/01/29 11:18:14;;;;;;;14.77;10.00;;;;;;;3.06;100.00;100785.50;5149101;27;20023;-71
2023/01/29 11:20:41;;;;;;;14.77;10.10;;;;;;;3.15;100.00;100773.94;5149266;27;20027;-71
2023/01/29 11:23:25;;;;;;;16.77;11.23;;;;;;;2.97;100.00;100805.47;5148993;27;20034;-69
2023/01/29 11:25:52;;;;;;;17.85;11.57;;;;;;;3.01;100.00;100755.31;5148854;27;20492;-69
2023/01/29 11:28:39;;;;;;;15.55;10.40;;;;;;;2.87;100.00;100804.50;5148496;27;20073;-69
2023/01/29 11:31:16;;;;;;;23.30;16.20;;;;;;;3.02;100.00;100753.66;5148962;27;20464;-70
2023/01/29 11:33:42;;;;;;;21.00;15.32;;;;;;;2.21;100.00;100667.88;5130058;27;20027;-69
2023/01/29 11:36:31;;;;;;;20.67;14.05;;;;;;;3.47;100.00;100807.91;5148300;27;20038;-71
2023/01/29 11:39:20;;;;;;;24.73;17.45;;;;;;;3.67;100.00;100797.25;5148526;27;20031;-70
2023/01/29 11:42:07;;;;;;;22.35;15.38;;;;;;;3.30;100.00;100795.94;5148717;27;20023;-70
2023/01/29 11:44:38;;;;;;;25.30;17.40;;;;;;;3.13;100.00;100808.22;5129929;27;20508;-70
2023/01/29 11:47:13;;;;;;;35.40;24.10;;;;;;;3.42;100.00;100791.06;5147244;27;20035;-70
2023/01/29 11:49:44;;;;;;;26.38;17.55;;;;;;;3.29;100.00;100787.53;5148891;27;20031;-70
2023/01/29 11:52:11;;;;;;;23.05;16.08;;;;;;;3.52;100.00;100787.88;5130055;27;20113;-70
2023/01/29 11:54:49;;;;;;;24.77;19.35;;;;;;;2.99;100.00;100709.22;5148281;27;21276;-70
2023/01/29 11:57:24;;;;;;;56.22;26.52;;;;;;;3.29;100.00;100782.50;5146203;27;20027;-70
2023/01/29 11:59:51;;;;;;;66.32;31.00;;;;;;;3.79;100.00;100785.69;5146976;27;20030;-70